Aviation Digital Data Service (ADDS)

Output produced by METARs form (1435 UTC 20 August 2014)
found at http://aviationweather.gov/adds/metars/
 
KBOS 201122Z 2012/2118 02003KT P6SM FEW250 
     FM201400 11006KT P6SM SKC